Time;durP1;ratioP1;P1;durP2;ratioP2;P2;SDS_P1;SDS_P2;PMS_P1;PMS_P2;Temp;Humidity;BMP_temperature;BMP_pressure;BME280_temperature;BME280_humidity;BME280_pressure;Samples;Min_cycle;Max_cycle;Signal;HPM_P1;HPM_P2
2022/02/20 00:00:09;;;;;;;;;;;;;;;21.73;28.26;95601.25;10478535;28;1907;-55
2022/02/20 00:05:10;;;;;;;;;;;;;;;21.71;28.30;95596.28;10483820;28;1973;-56
2022/02/20 00:10:10;;;;;;;;;;;;;;;21.70;28.48;95599.22;10478560;28;1800;-54
2022/02/20 00:15:11;;;;;;;;;;;;;;;21.71;28.40;95600.75;10482589;28;1908;-52
2022/02/20 00:20:11;;;;;;;;;;;;;;;21.71;28.46;95611.31;10475954;28;1900;-53
2022/02/20 00:25:12;;;;;;;;;;;;;;;21.70;28.31;95594.69;10478020;28;1938;-56
2022/02/20 00:30:12;;;;;;;;;;;;;;;21.74;28.33;95598.34;10478971;28;1833;-54
2022/02/20 00:35:13;;;;;;;;;;;;;;;21.74;28.29;95590.41;10495468;28;1784;-54
2022/02/20 00:40:13;;;;;;;;;;;;;;;21.74;28.38;95593.06;10478576;28;1863;-54
2022/02/20 00:45:14;;;;;;;;;;;;;;;21.76;28.01;95587.50;10479155;28;1918;-55
2022/02/20 00:50:15;;;;;;;;;;;;;;;21.75;27.91;95585.94;10500822;28;1950;-51
2022/02/20 00:55:15;;;;;;;;;;;;;;;21.73;27.89;95594.13;10475403;28;1885;-53
2022/02/20 01:00:16;;;;;;;;;;;;;;;21.73;27.68;95588.88;10476907;28;1794;-54
2022/02/20 01:05:17;;;;;;;;;;;;;;;21.74;27.18;95595.69;10462500;28;2019;-54
2022/02/20 01:10:18;;;;;;;;;;;;;;;21.75;27.31;95591.22;10475998;28;1887;-55
2022/02/20 01:15:18;;;;;;;;;;;;;;;21.74;27.20;95605.47;10474657;28;1999;-55
2022/02/20 01:20:18;;;;;;;;;;;;;;;21.76;27.10;95608.63;10476624;28;1894;-54
2022/02/20 01:25:19;;;;;;;;;;;;;;;21.74;27.28;95629.22;10478041;28;1910;-53
2022/02/20 01:30:19;;;;;;;;;;;;;;;21.77;27.20;95647.13;10473801;28;1775;-55
2022/02/20 01:35:19;;;;;;;;;;;;;;;21.75;27.33;95660.59;10478147;28;2002;-56
2022/02/20 01:40:20;;;;;;;;;;;;;;;21.74;27.28;95664.28;10476383;28;1903;-55
2022/02/20 01:45:20;;;;;;;;;;;;;;;21.70;27.17;95675.72;10479890;28;1969;-55
2022/02/20 01:50:20;;;;;;;;;;;;;;;21.70;26.98;95673.84;10475000;28;1866;-54
2022/02/20 01:55:21;;;;;;;;;;;;;;;21.72;27.01;95657.75;10479354;28;1898;-55
2022/02/20 02:00:22;;;;;;;;;;;;;;;21.69;27.09;95661.72;10468134;28;2337;-53
2022/02/20 02:05:22;;;;;;;;;;;;;;;21.68;27.13;95643.53;10475239;28;1910;-55
2022/02/20 02:10:23;;;;;;;;;;;;;;;21.67;26.39;95647.25;10474087;28;1875;-56
2022/02/20 02:15:23;;;;;;;;;;;;;;;21.69;26.67;95645.91;10473617;28;1862;-55
2022/02/20 02:20:23;;;;;;;;;;;;;;;21.68;26.59;95644.31;10486251;28;2215;-51
2022/02/20 02:25:24;;;;;;;;;;;;;;;21.63;25.60;95635.69;10472210;28;2300;-55
2022/02/20 02:30:25;;;;;;;;;;;;;;;21.64;26.31;95664.41;10469838;28;1883;-55
2022/02/20 02:35:25;;;;;;;;;;;;;;;21.61;25.44;95648.38;10476122;28;1951;-56
2022/02/20 02:40:25;;;;;;;;;;;;;;;21.62;25.44;95649.94;10469469;28;2380;-56
2022/02/20 02:45:26;;;;;;;;;;;;;;;21.55;24.88;95660.84;10476865;28;1914;-55
2022/02/20 02:50:27;;;;;;;;;;;;;;;21.60;25.75;95666.03;10472704;28;1855;-55
2022/02/20 02:55:28;;;;;;;;;;;;;;;21.60;25.91;95662.63;10468536;28;1858;-56
2022/02/20 03:00:31;;;;;;;;;;;;;;;21.58;25.64;95662.91;10465252;28;1968;-55
2022/02/20 03:05:31;;;;;;;;;;;;;;;21.57;25.20;95673.75;10474607;28;2037;-56
2022/02/20 03:10:31;;;;;;;;;;;;;;;21.53;25.07;95678.81;10476416;28;1982;-56
2022/02/20 03:15:32;;;;;;;;;;;;;;;21.55;25.32;95681.16;10476676;28;1915;-55
2022/02/20 03:20:33;;;;;;;;;;;;;;;21.51;24.98;95683.56;10484576;28;1914;-54
2022/02/20 03:25:34;;;;;;;;;;;;;;;21.54;25.18;95700.66;10478837;28;2045;-55
2022/02/20 03:30:35;;;;;;;;;;;;;;;21.48;24.70;95691.25;10480997;28;1918;-54
2022/02/20 03:35:36;;;;;;;;;;;;;;;21.44;24.40;95700.78;10485908;28;1949;-55
2022/02/20 03:40:37;;;;;;;;;;;;;;;21.44;24.62;95684.97;10483955;28;1914;-54
2022/02/20 03:45:37;;;;;;;;;;;;;;;21.42;24.75;95685.25;10476469;28;1998;-55
2022/02/20 03:50:38;;;;;;;;;;;;;;;21.46;24.44;95690.72;10476999;28;1950;-56
2022/02/20 03:55:38;;;;;;;;;;;;;;;21.44;24.85;95685.75;10478418;28;1902;-55
2022/02/20 04:00:40;;;;;;;;;;;;;;;21.42;24.34;95682.59;10475505;28;1954;-55
2022/02/20 04:05:40;;;;;;;;;;;;;;;21.41;24.94;95680.25;10477056;28;1969;-56
2022/02/20 04:10:40;;;;;;;;;;;;;;;21.41;24.34;95685.53;10478798;28;1969;-55
2022/02/20 04:15:41;;;;;;;;;;;;;;;21.43;24.28;95686.81;10478842;28;1901;-56
2022/02/20 04:20:42;;;;;;;;;;;;;;;21.41;24.82;95681.03;10482095;28;1973;-56
2022/02/20 04:25:42;;;;;;;;;;;;;;;21.37;24.85;95687.16;10476686;28;1973;-55
2022/02/20 04:30:42;;;;;;;;;;;;;;;21.38;24.69;95686.88;10480068;28;1968;-55
2022/02/20 04:35:43;;;;;;;;;;;;;;;21.37;24.09;95689.78;10482207;28;1998;-56
2022/02/20 04:40:43;;;;;;;;;;;;;;;21.34;24.47;95682.44;10479375;28;2075;-56
2022/02/20 04:45:43;;;;;;;;;;;;;;;21.37;24.71;95687.91;10476751;28;1953;-56
2022/02/20 04:50:44;;;;;;;;;;;;;;;21.33;24.15;95673.72;10475918;28;1903;-56
2022/02/20 04:55:44;;;;;;;;;;;;;;;21.31;23.97;95670.59;10478169;28;1910;-54
2022/02/20 05:00:44;;;;;;;;;;;;;;;21.31;24.13;95685.66;10477405;28;1879;-54
2022/02/20 05:05:46;;;;;;;;;;;;;;;21.30;24.13;95684.06;10474798;28;1981;-55
2022/02/20 05:10:46;;;;;;;;;;;;;;;21.35;24.72;95689.28;10477385;28;1994;-53
2022/02/20 05:15:49;;;;;;;;;;;;;;;21.29;24.01;95687.78;10481474;28;1874;-55
2022/02/20 05:20:54;;;;;;;;;;;;;;;21.28;24.01;95686.19;10474907;28;1989;-56
2022/02/20 05:25:55;;;;;;;;;;;;;;;21.28;23.91;95691.47;10474183;28;1934;-56
2022/02/20 05:30:55;;;;;;;;;;;;;;;21.26;24.51;95677.78;10476824;28;1919;-55
2022/02/20 05:35:56;;;;;;;;;;;;;;;21.24;24.25;95685.97;10476980;28;2103;-56
2022/02/20 05:40:57;;;;;;;;;;;;;;;21.22;23.84;95682.03;10474501;28;1985;-55
2022/02/20 05:45:57;;;;;;;;;;;;;;;21.24;23.92;95687.81;10478896;28;1996;-54
2022/02/20 05:50:58;;;;;;;;;;;;;;;21.21;24.00;95685.72;10470064;28;2072;-56
2022/02/20 05:55:58;;;;;;;;;;;;;;;21.20;24.11;95698.13;10474235;28;2023;-55
2022/02/20 06:00:59;;;;;;;;;;;;;;;21.20;23.79;95686.78;10474511;28;1988;-55
2022/02/20 06:05:59;;;;;;;;;;;;;;;21.18;23.82;95696.84;10474639;28;1911;-55
2022/02/20 06:11:00;;;;;;;;;;;;;;;21.17;24.32;95719.75;10477152;28;1999;-55
2022/02/20 06:16:00;;;;;;;;;;;;;;;21.20;24.53;95736.88;10473314;28;1922;-56
2022/02/20 06:21:01;;;;;;;;;;;;;;;21.18;24.22;95744.28;10473244;28;2017;-55
2022/02/20 06:26:01;;;;;;;;;;;;;;;21.18;24.39;95750.34;10469214;28;2020;-54
2022/02/20 06:31:02;;;;;;;;;;;;;;;21.18;23.91;95760.09;10473004;28;1966;-54
2022/02/20 06:36:02;;;;;;;;;;;;;;;21.17;23.93;95761.16;10474150;28;1883;-54
2022/02/20 06:41:02;;;;;;;;;;;;;;;21.17;24.06;95759.31;10473532;28;2040;-53
2022/02/20 06:46:03;;;;;;;;;;;;;;;21.16;24.02;95763.00;10476259;28;1967;-55
2022/02/20 06:51:03;;;;;;;;;;;;;;;21.13;24.49;95757.50;10475304;28;1934;-54
2022/02/20 06:56:04;;;;;;;;;;;;;;;21.16;24.43;95767.50;10477068;28;1888;-56
2022/02/20 07:01:04;;;;;;;;;;;;;;;21.17;24.33;95771.69;10470155;28;2132;-53
2022/02/20 07:06:05;;;;;;;;;;;;;;;21.17;24.27;95779.59;10468365;28;1966;-51
2022/02/20 07:11:05;;;;;;;;;;;;;;;21.14;23.97;95780.97;10468140;28;2056;-55
2022/02/20 07:16:05;;;;;;;;;;;;;;;21.11;24.09;95785.97;10471640;28;2049;-54
2022/02/20 07:21:05;;;;;;;;;;;;;;;21.12;24.01;95792.84;10471632;28;2010;-56
2022/02/20 07:26:06;;;;;;;;;;;;;;;21.10;24.41;95803.66;10472561;28;1992;-56
2022/02/20 07:31:06;;;;;;;;;;;;;;;21.08;24.15;95802.34;10470171;28;1938;-54
2022/02/20 07:36:06;;;;;;;;;;;;;;;21.05;24.21;95791.31;10470534;28;2082;-56
2022/02/20 07:41:07;;;;;;;;;;;;;;;21.08;24.31;95796.00;10468271;28;1914;-55
2022/02/20 07:46:07;;;;;;;;;;;;;;;21.06;24.29;95806.03;10473363;28;1974;-56
2022/02/20 07:51:08;;;;;;;;;;;;;;;21.08;24.60;95799.72;10464252;28;1946;-56
2022/02/20 07:56:08;;;;;;;;;;;;;;;21.04;24.12;95807.41;10480493;28;1980;-55
2022/02/20 08:01:09;;;;;;;;;;;;;;;21.04;24.26;95817.94;10478660;28;1895;-55
2022/02/20 08:06:09;;;;;;;;;;;;;;;21.05;24.37;95822.13;10478870;28;1906;-56
2022/02/20 08:11:10;;;;;;;;;;;;;;;21.03;24.21;95825.06;10478854;28;2364;-53
2022/02/20 08:16:10;;;;;;;;;;;;;;;21.02;24.43;95831.38;10482266;28;1998;-56
2022/02/20 08:21:10;;;;;;;;;;;;;;;21.00;24.40;95825.56;10482864;28;1953;-54
2022/02/20 08:26:12;;;;;;;;;;;;;;;21.00;24.28;95844.00;10481333;28;1918;-56
2022/02/20 08:31:12;;;;;;;;;;;;;;;21.08;24.88;95839.25;10480931;28;1894;-55
2022/02/20 08:36:13;;;;;;;;;;;;;;;21.02;24.40;95834.00;10479728;28;1957;-55
2022/02/20 08:41:14;;;;;;;;;;;;;;;21.01;24.17;95842.97;10480495;28;1999;-54
2022/02/20 08:46:14;;;;;;;;;;;;;;;20.98;24.17;95845.31;10478439;28;1967;-53
2022/02/20 08:51:16;;;;;;;;;;;;;;;20.98;24.18;95840.06;10477785;28;1918;-55
2022/02/20 08:56:19;;;;;;;;;;;;;;;21.00;24.10;95827.41;10477885;28;2064;-56
2022/02/20 09:01:19;;;;;;;;;;;;;;;21.03;24.51;95822.41;10472853;28;1931;-56
2022/02/20 09:06:19;;;;;;;;;;;;;;;21.00;24.25;95822.91;10475749;28;1950;-56
2022/02/20 09:11:20;;;;;;;;;;;;;;;21.00;24.42;95812.38;10477656;28;1964;-56
2022/02/20 09:16:21;;;;;;;;;;;;;;;21.03;24.32;95790.00;10479228;28;1913;-55
2022/02/20 09:21:22;;;;;;;;;;;;;;;21.00;24.27;95801.84;10476184;28;1960;-54
2022/02/20 09:26:22;;;;;;;;;;;;;;;20.99;24.53;95797.66;10478799;28;1971;-52
2022/02/20 09:31:23;;;;;;;;;;;;;;;20.94;24.27;95816.09;10475772;28;1856;-56
2022/02/20 09:36:23;;;;;;;;;;;;;;;21.00;24.60;95796.56;10474569;28;1938;-56
2022/02/20 09:41:25;;;;;;;;;;;;;;;21.00;24.61;95798.41;10471782;28;1985;-56
2022/02/20 09:46:28;;;;;;;;;;;;;;;20.98;24.59;95792.63;10475434;28;1929;-56
2022/02/20 09:51:30;;;;;;;;;;;;;;;20.98;24.52;95777.59;10475452;28;2092;-54
2022/02/20 09:56:31;;;;;;;;;;;;;;;20.99;24.69;95768.66;10474386;28;1916;-57
2022/02/20 10:01:32;;;;;;;;;;;;;;;20.98;24.47;95766.28;10475170;28;1887;-56
2022/02/20 10:06:33;;;;;;;;;;;;;;;20.98;24.13;95777.59;10474528;28;2019;-55
2022/02/20 10:11:33;;;;;;;;;;;;;;;21.02;24.39;95770.75;10475090;28;1982;-56
2022/02/20 10:16:34;;;;;;;;;;;;;;;21.05;24.72;95762.31;10473172;28;1824;-56
2022/02/20 10:21:34;;;;;;;;;;;;;;;21.00;24.39;95759.66;10473470;28;1845;-57
2022/02/20 10:26:44;;;;;;;;;;;;;;;21.03;24.45;95761.00;10474273;28;1977;-56
2022/02/20 10:31:44;;;;;;;;;;;;;;;21.03;24.42;95748.63;10459375;28;1863;-54
2022/02/20 10:37:01;;;;;;;;;;;;;;;21.12;25.59;95743.53;10468801;28;1782;-55
2022/02/20 10:42:10;;;;;;;;;;;;;;;21.22;26.01;95746.09;10473446;28;1784;-55
2022/02/20 10:47:13;;;;;;;;;;;;;;;21.20;25.72;95723.69;10474773;28;1910;-55
2022/02/20 10:52:29;;;;;;;;;;;;;;;21.13;26.25;95721.38;10429079;28;1146597;-53
2022/02/20 10:57:33;;;;;;;;;;;;;;;21.15;26.56;95710.56;10474709;28;1897;-57
2022/02/20 11:02:34;;;;;;;;;;;;;;;21.23;27.36;95694.13;10487409;28;1788;-54
2022/02/20 11:07:37;;;;;;;;;;;;;;;21.20;27.69;95678.88;10470404;28;2137;-56
2022/02/20 11:12:38;;;;;;;;;;;;;;;21.20;26.71;95687.59;10474832;28;1808;-55
2022/02/20 11:17:38;;;;;;;;;;;;;;;21.16;26.59;95689.22;10474235;28;1987;-54
2022/02/20 11:22:39;;;;;;;;;;;;;;;21.20;27.21;95692.06;10451815;28;1958;-56
2022/02/20 11:27:39;;;;;;;;;;;;;;;21.16;26.82;95681.31;10453420;28;1967;-56
2022/02/20 11:32:43;;;;;;;;;;;;;;;21.16;26.63;95693.69;10454319;28;1926;-56
2022/02/20 11:37:46;;;;;;;;;;;;;;;21.19;26.22;95679.94;10451411;28;1993;-55
2022/02/20 11:43:08;;;;;;;;;;;;;;;21.20;26.30;95655.16;10472589;28;1788;-56
2022/02/20 11:48:08;;;;;;;;;;;;;;;21.41;26.57;95643.34;10479592;28;1961;-54
2022/02/20 11:53:09;;;;;;;;;;;;;;;21.46;27.09;95632.72;10478244;28;1957;-54
2022/02/20 11:58:13;;;;;;;;;;;;;;;21.51;26.66;95619.50;10460882;28;1932;-53
2022/02/20 12:03:19;;;;;;;;;;;;;;;21.52;26.37;95606.00;10490236;28;1993;-56
2022/02/20 12:08:30;;;;;;;;;;;;;;;21.46;26.23;95619.53;10474206;28;1902;-57
2022/02/20 12:13:34;;;;;;;;;;;;;;;21.44;26.43;95617.19;10483049;28;1827;-57
2022/02/20 12:18:34;;;;;;;;;;;;;;;21.50;27.37;95608.16;10477522;28;2323;-58
2022/02/20 12:23:48;;;;;;;;;;;;;;;21.33;25.81;95591.22;10479005;28;1895;-56
2022/02/20 12:28:48;;;;;;;;;;;;;;;21.31;26.94;95593.38;10472132;28;2166;-56
2022/02/20 12:33:49;;;;;;;;;;;;;;;21.37;27.31;95579.06;10460343;28;2167;-65
2022/02/20 12:38:50;;;;;;;;;;;;;;;21.39;27.12;95571.66;10465732;28;1863;-58
2022/02/20 12:43:50;;;;;;;;;;;;;;;21.47;28.01;95576.28;10472378;28;1962;-54
2022/02/20 12:48:51;;;;;;;;;;;;;;;21.48;27.50;95596.31;10478377;28;1920;-56
2022/02/20 12:53:52;;;;;;;;;;;;;;;21.42;26.85;95565.78;10480394;28;1812;-57
2022/02/20 12:58:52;;;;;;;;;;;;;;;21.45;27.26;95576.53;10477383;28;1856;-58
2022/02/20 13:03:53;;;;;;;;;;;;;;;21.41;26.35;95564.22;10473963;28;1973;-58
2022/02/20 13:08:57;;;;;;;;;;;;;;;21.53;27.51;95565.41;10476171;28;1853;-61
2022/02/20 13:14:07;;;;;;;;;;;;;;;21.59;27.56;95540.53;10480601;28;1940;-56
2022/02/20 13:19:08;;;;;;;;;;;;;;;21.85;27.35;95538.31;10479431;28;1841;-58
2022/02/20 13:24:09;;;;;;;;;;;;;;;22.34;25.95;95525.41;10457384;28;1981;-54
2022/02/20 13:29:09;;;;;;;;;;;;;;;22.50;25.74;95520.66;10469945;28;1734;-58
2022/02/20 13:34:11;;;;;;;;;;;;;;;22.40;25.74;95511.03;10457925;28;1776;-58
2022/02/20 13:39:12;;;;;;;;;;;;;;;22.15;25.08;95510.69;10471865;28;1794;-56
2022/02/20 13:44:25;;;;;;;;;;;;;;;21.92;25.55;95522.13;10476581;28;1905;-57
2022/02/20 13:49:26;;;;;;;;;;;;;;;21.73;25.95;95514.19;10469473;28;1859;-57
2022/02/20 13:54:34;;;;;;;;;;;;;;;21.62;25.63;95503.00;10466418;28;2026;-58
2022/02/20 13:59:37;;;;;;;;;;;;;;;21.50;25.49;95484.19;10460960;28;2169;-57
2022/02/20 14:04:41;;;;;;;;;;;;;;;21.42;25.81;95463.75;10465593;28;1980;-58
2022/02/20 14:09:41;;;;;;;;;;;;;;;21.37;25.92;95478.84;10467546;28;1835;-56
2022/02/20 14:15:14;;;;;;;;;;;;;;;21.32;25.82;95460.47;10475086;28;2327;-57
2022/02/20 14:20:15;;;;;;;;;;;;;;;21.24;25.47;95451.34;10418899;28;1957;-57
2022/02/20 14:25:17;;;;;;;;;;;;;;;21.26;25.28;95451.06;10475992;28;1987;-57
2022/02/20 14:30:32;;;;;;;;;;;;;;;21.25;25.70;95458.16;10470951;28;1864;-57
2022/02/20 14:35:33;;;;;;;;;;;;;;;21.22;25.51;95444.78;10475045;28;2005;-58
2022/02/20 14:40:33;;;;;;;;;;;;;;;21.19;25.10;95424.25;10476097;28;1793;-59
2022/02/20 14:45:34;;;;;;;;;;;;;;;21.17;25.27;95427.19;10471157;28;2003;-58
2022/02/20 14:50:36;;;;;;;;;;;;;;;21.15;25.31;95417.97;10476162;28;1879;-55
2022/02/20 14:55:36;;;;;;;;;;;;;;;21.14;25.16;95416.44;10482641;28;1853;-57
2022/02/20 15:00:38;;;;;;;;;;;;;;;21.12;25.46;95415.94;10469764;28;2213;-57
2022/02/20 15:05:39;;;;;;;;;;;;;;;21.12;25.60;95395.63;10472021;28;1933;-55
2022/02/20 15:10:40;;;;;;;;;;;;;;;21.10;25.21;95389.09;10468641;28;1835;-56
2022/02/20 15:15:41;;;;;;;;;;;;;;;21.10;24.94;95373.28;10473340;28;1888;-57
2022/02/20 15:20:41;;;;;;;;;;;;;;;21.09;25.28;95383.00;10470907;28;1825;-58
2022/02/20 15:25:42;;;;;;;;;;;;;;;21.11;25.29;95390.63;10468526;28;2126;-59
2022/02/20 15:30:42;;;;;;;;;;;;;;;21.08;25.25;95392.78;10466899;28;1995;-58
2022/02/20 15:35:42;;;;;;;;;;;;;;;21.07;24.91;95379.88;10472427;28;1875;-58
2022/02/20 15:40:44;;;;;;;;;;;;;;;21.10;25.18;95383.81;10470288;28;1794;-57
2022/02/20 15:45:44;;;;;;;;;;;;;;;21.08;25.28;95363.78;10458197;28;2084;-58
2022/02/20 15:50:45;;;;;;;;;;;;;;;21.08;25.11;95364.88;10474503;28;2132;-55
2022/02/20 15:55:47;;;;;;;;;;;;;;;21.09;25.33;95351.38;10471492;28;1940;-57
2022/02/20 16:00:47;;;;;;;;;;;;;;;21.10;24.86;95362.72;10475241;28;2140;-58
2022/02/20 16:05:48;;;;;;;;;;;;;;;21.12;25.47;95342.13;10474416;28;1976;-58
2022/02/20 16:10:50;;;;;;;;;;;;;;;21.06;25.04;95331.66;10473257;28;1849;-56
2022/02/20 16:15:50;;;;;;;;;;;;;;;21.08;25.96;95327.97;10480739;28;1811;-54
2022/02/20 16:20:53;;;;;;;;;;;;;;;21.10;25.25;95320.56;10477784;28;1815;-52
2022/02/20 16:25:55;;;;;;;;;;;;;;;21.18;27.20;95327.81;10474692;28;1969;-51
2022/02/20 16:30:56;;;;;;;;;;;;;;;21.24;26.97;95321.38;10472494;28;1789;-54
2022/02/20 16:35:56;;;;;;;;;;;;;;;21.44;27.58;95335.03;10473202;28;1801;-53
2022/02/20 16:40:58;;;;;;;;;;;;;;;21.31;26.18;95337.63;10470000;28;1453;-55
2022/02/20 16:45:58;;;;;;;;;;;;;;;21.22;25.74;95326.97;10452284;28;1961;-53
2022/02/20 16:51:01;;;;;;;;;;;;;;;21.22;26.51;95323.53;10478898;28;1814;-56
2022/02/20 16:56:02;;;;;;;;;;;;;;;21.21;25.94;95321.94;10479837;28;1473;-55
2022/02/20 17:01:02;;;;;;;;;;;;;;;21.24;26.90;95324.03;10477730;28;1441;-54
2022/02/20 17:06:03;;;;;;;;;;;;;;;21.22;25.81;95315.63;10481387;28;1926;-53
2022/02/20 17:11:03;;;;;;;;;;;;;;;21.21;26.39;95319.31;10478472;28;1790;-53
2022/02/20 17:16:03;;;;;;;;;;;;;;;21.19;25.93;95306.44;10476308;28;1409;-56
2022/02/20 17:21:04;;;;;;;;;;;;;;;21.16;25.79;95308.88;10479348;28;2143;-55
2022/02/20 17:26:04;;;;;;;;;;;;;;;21.16;25.66;95306.22;10473150;28;1910;-54
2022/02/20 17:31:07;;;;;;;;;;;;;;;21.16;26.09;95298.31;10474734;28;1931;-56
2022/02/20 17:36:07;;;;;;;;;;;;;;;21.19;26.00;95284.56;10454387;28;1430;-56
2022/02/20 17:41:08;;;;;;;;;;;;;;;21.18;26.10;95283.78;10474138;28;2109;-57
2022/02/20 17:46:08;;;;;;;;;;;;;;;21.15;25.75;95297.53;10473481;28;2185;-55
2022/02/20 17:51:08;;;;;;;;;;;;;;;21.22;27.41;95291.91;10473658;28;1465;-54
2022/02/20 17:56:09;;;;;;;;;;;;;;;21.19;27.45;95274.00;10478206;28;1441;-54
2022/02/20 18:01:09;;;;;;;;;;;;;;;21.18;28.18;95269.81;10477933;28;1964;-53
2022/02/20 18:06:10;;;;;;;;;;;;;;;21.16;27.79;95269.34;10479691;28;1976;-53
2022/02/20 18:11:11;;;;;;;;;;;;;;;21.15;28.05;95259.84;10462808;28;1861;-53
2022/02/20 18:16:12;;;;;;;;;;;;;;;21.14;27.88;95258.28;10470388;28;1465;-52
2022/02/20 18:21:13;;;;;;;;;;;;;;;21.13;27.76;95268.03;10472945;28;1413;-56
2022/02/20 18:26:14;;;;;;;;;;;;;;;21.10;27.94;95254.66;10473744;28;1918;-56
2022/02/20 18:31:15;;;;;;;;;;;;;;;21.08;27.91;95261.00;10473976;28;1538;-53
2022/02/20 18:36:15;;;;;;;;;;;;;;;21.10;27.64;95265.22;10474675;28;1462;-53
2022/02/20 18:41:16;;;;;;;;;;;;;;;21.08;28.33;95255.72;10473411;28;1584;-53
2022/02/20 18:46:16;;;;;;;;;;;;;;;21.08;27.84;95261.00;10466753;28;1997;-56
2022/02/20 18:51:16;;;;;;;;;;;;;;;21.11;28.61;95269.41;10470641;28;1540;-54
2022/02/20 18:56:17;;;;;;;;;;;;;;;21.08;28.15;95255.72;10468259;28;1600;-56
2022/02/20 19:01:17;;;;;;;;;;;;;;;21.10;27.95;95238.88;10469018;28;1455;-56
2022/02/20 19:06:18;;;;;;;;;;;;;;;21.12;27.82;95245.41;10450135;28;1973;-56
2022/02/20 19:11:18;;;;;;;;;;;;;;;21.10;27.80;95252.81;10457063;28;1390;-55
2022/02/20 19:16:19;;;;;;;;;;;;;;;21.10;28.02;95246.75;10467888;28;1591;-56
2022/02/20 19:21:20;;;;;;;;;;;;;;;21.10;27.98;95237.00;10465898;28;1809;-55
2022/02/20 19:26:22;;;;;;;;;;;;;;;21.14;27.32;95231.94;10473606;28;1902;-56
2022/02/20 19:31:23;;;;;;;;;;;;;;;21.12;27.56;95231.44;10475203;28;1801;-56
2022/02/20 19:36:24;;;;;;;;;;;;;;;21.11;28.13;95217.47;10468982;28;2053;-55
2022/02/20 19:41:24;;;;;;;;;;;;;;;21.12;28.26;95213.00;10472714;28;1868;-56
2022/02/20 19:46:24;;;;;;;;;;;;;;;21.15;28.34;95204.50;10473788;28;1902;-53
2022/02/20 19:51:25;;;;;;;;;;;;;;;21.15;28.41;95191.31;10474420;28;1847;-56
2022/02/20 19:56:25;;;;;;;;;;;;;;;21.12;28.32;95187.44;10479847;28;2227;-58
2022/02/20 20:01:26;;;;;;;;;;;;;;;21.12;28.07;95190.06;10479959;28;1846;-57
2022/02/20 20:06:26;;;;;;;;;;;;;;;21.12;28.06;95187.44;10477637;28;2058;-55
2022/02/20 20:11:27;;;;;;;;;;;;;;;21.11;28.07;95187.69;10471839;28;1944;-58
2022/02/20 20:16:31;;;;;;;;;;;;;;;21.11;27.98;95193.75;10476703;28;1809;-57
2022/02/20 20:21:31;;;;;;;;;;;;;;;21.05;27.79;95185.16;10469261;28;1794;-58
2022/02/20 20:26:32;;;;;;;;;;;;;;;21.05;27.88;95179.13;10455236;28;1910;-57
2022/02/20 20:31:32;;;;;;;;;;;;;;;21.02;28.19;95174.41;10476531;28;1836;-57
2022/02/20 20:36:33;;;;;;;;;;;;;;;21.02;28.01;95151.47;10477851;28;1889;-59
2022/02/20 20:41:36;;;;;;;;;;;;;;;20.98;27.97;95158.38;10470275;28;1944;-55
2022/02/20 20:46:37;;;;;;;;;;;;;;;20.94;28.26;95160.03;10460907;28;1910;-54
2022/02/20 20:51:37;;;;;;;;;;;;;;;20.92;28.14;95148.22;10474111;28;1909;-57
2022/02/20 20:56:40;;;;;;;;;;;;;;;20.91;28.05;95138.75;10471664;28;2013;-56
2022/02/20 21:01:40;;;;;;;;;;;;;;;20.87;28.00;95140.41;10479902;28;1922;-56
2022/02/20 21:06:41;;;;;;;;;;;;;;;20.83;27.40;95118.34;10477377;28;1917;-54
2022/02/20 21:11:41;;;;;;;;;;;;;;;20.79;27.72;95114.72;10471271;28;1863;-57
2022/02/20 21:16:44;;;;;;;;;;;;;;;20.84;28.37;95102.25;10473002;28;1864;-57
2022/02/20 21:21:44;;;;;;;;;;;;;;;20.84;27.45;95091.72;10473984;28;1868;-56
2022/02/20 21:26:44;;;;;;;;;;;;;;;20.86;27.60;95094.03;10474454;28;1967;-56
2022/02/20 21:31:45;;;;;;;;;;;;;;;20.86;27.26;95076.41;10474095;28;1868;-56
2022/02/20 21:36:45;;;;;;;;;;;;;;;20.91;27.98;95071.03;10474291;28;1820;-54
2022/02/20 21:41:46;;;;;;;;;;;;;;;20.91;27.42;95065.00;10474740;28;1786;-56
2022/02/20 21:46:46;;;;;;;;;;;;;;;20.88;27.82;95055.81;10477603;28;2062;-54
2022/02/20 21:51:46;;;;;;;;;;;;;;;20.86;27.88;95068.50;10470723;28;1781;-55
2022/02/20 21:56:47;;;;;;;;;;;;;;;20.84;28.10;95056.69;10470637;28;1885;-55
2022/02/20 22:01:49;;;;;;;;;;;;;;;20.80;27.64;95048.59;10477515;28;1844;-53
2022/02/20 22:06:50;;;;;;;;;;;;;;;20.79;27.55;95041.75;10475515;28;1901;-53
2022/02/20 22:11:53;;;;;;;;;;;;;;;20.80;28.24;95026.72;10474082;28;1863;-54
2022/02/20 22:16:54;;;;;;;;;;;;;;;20.76;27.69;95010.72;10476462;28;1896;-55
2022/02/20 22:21:54;;;;;;;;;;;;;;;20.76;27.65;95005.47;10478340;28;1845;-54
2022/02/20 22:26:54;;;;;;;;;;;;;;;20.80;27.89;94990.63;10473645;28;1909;-53
2022/02/20 22:31:55;;;;;;;;;;;;;;;20.79;27.62;94985.66;10468358;28;1868;-55
2022/02/20 22:36:55;;;;;;;;;;;;;;;20.77;27.40;94948.31;10481631;28;1801;-55
2022/02/20 22:41:56;;;;;;;;;;;;;;;20.76;27.53;94926.44;10473309;28;1868;-54
2022/02/20 22:46:56;;;;;;;;;;;;;;;20.71;27.43;94931.81;10478498;28;1973;-56
2022/02/20 22:51:57;;;;;;;;;;;;;;;20.77;28.04;94925.38;10471023;28;2015;-56
2022/02/20 22:56:57;;;;;;;;;;;;;;;20.75;27.47;94903.06;10473781;28;1821;-53
2022/02/20 23:01:57;;;;;;;;;;;;;;;20.73;27.37;94898.06;10471209;28;1860;-55
2022/02/20 23:06:58;;;;;;;;;;;;;;;20.70;27.35;94890.75;10474420;28;1914;-56
2022/02/20 23:11:58;;;;;;;;;;;;;;;20.68;27.16;94865.78;10475651;28;1828;-55
2022/02/20 23:16:58;;;;;;;;;;;;;;;20.69;27.51;94889.19;10472430;28;1876;-52
2022/02/20 23:22:00;;;;;;;;;;;;;;;20.70;27.36;94868.91;10475331;28;1847;-56
2022/02/20 23:27:03;;;;;;;;;;;;;;;20.69;27.36;94870.75;10483379;28;1984;-54
2022/02/20 23:32:03;;;;;;;;;;;;;;;20.67;26.98;94856.34;10486229;28;1777;-57
2022/02/20 23:37:04;;;;;;;;;;;;;;;20.67;27.03;94840.53;10489240;28;1821;-57
2022/02/20 23:42:04;;;;;;;;;;;;;;;20.68;26.86;94836.81;10486110;28;1804;-54
2022/02/20 23:47:05;;;;;;;;;;;;;;;20.66;27.06;94818.69;10485021;28;1967;-54
2022/02/20 23:52:05;;;;;;;;;;;;;;;20.67;27.04;94817.59;10477018;28;1836;-53
2022/02/20 23:57:05;;;;;;;;;;;;;;;20.68;27.00;94806.00;10476336;28;1758;-52
